createdAt,value
2023-11-16T00:00:49.552Z,21.13
2023-11-16T00:03:17.610Z,14.77
2023-11-16T00:05:45.591Z,21.00
2023-11-16T00:08:13.254Z,18.33
2023-11-16T00:10:41.976Z,17.95
2023-11-16T00:13:10.494Z,16.92
2023-11-16T00:15:38.236Z,16.45
2023-11-16T00:18:06.521Z,23.70
2023-11-16T00:20:38.202Z,18.52
2023-11-16T00:23:08.912Z,16.30
2023-11-16T00:25:36.763Z,17.20
2023-11-16T00:28:04.317Z,16.00
2023-11-16T00:30:31.915Z,23.08
2023-11-16T00:33:01.256Z,10.95
2023-11-16T00:35:28.940Z,17.55
2023-11-16T00:37:56.530Z,21.98
2023-11-16T00:40:24.209Z,17.42
2023-11-16T00:42:52.311Z,20.40
2023-11-16T00:45:21.334Z,18.17
2023-11-16T00:47:49.096Z,22.10
2023-11-16T00:50:16.757Z,22.65
2023-11-16T00:52:47.758Z,15.25
2023-11-16T00:55:16.599Z,20.85
2023-11-16T00:57:49.051Z,13.88
2023-11-16T01:00:17.578Z,16.17
2023-11-16T01:02:47.532Z,17.10
2023-11-16T01:05:17.534Z,18.50
2023-11-16T01:07:45.697Z,23.10
2023-11-16T01:10:17.071Z,25.20
2023-11-16T01:12:44.850Z,18.83
2023-11-16T01:15:15.428Z,21.25
2023-11-16T01:17:46.704Z,19.10
2023-11-16T01:20:20.380Z,21.67
2023-11-16T01:23:12.134Z,18.90
2023-11-16T01:25:52.697Z,14.50
2023-11-16T01:28:27.725Z,14.67
2023-11-16T01:30:57.771Z,17.00
2023-11-16T01:33:25.502Z,21.17
2023-11-16T01:35:53.115Z,19.67
2023-11-16T01:38:21.071Z,18.02
2023-11-16T01:40:48.735Z,16.52
2023-11-16T01:43:16.280Z,27.60
2023-11-16T01:45:45.365Z,12.98
2023-11-16T01:48:14.337Z,19.52
2023-11-16T01:50:42.779Z,15.05
2023-11-16T01:53:12.427Z,16.65
2023-11-16T01:55:43.243Z,13.98
2023-11-16T01:58:11.186Z,17.77
2023-11-16T02:00:44.084Z,20.27
2023-11-16T02:03:12.609Z,19.70
2023-11-16T02:05:40.607Z,24.30
2023-11-16T02:08:12.661Z,11.73
2023-11-16T02:10:42.364Z,13.82
2023-11-16T02:13:36.964Z,16.95
2023-11-16T02:16:07.520Z,22.73
2023-11-16T02:18:36.139Z,20.75
2023-11-16T02:21:04.996Z,20.52
2023-11-16T02:23:36.392Z,14.82
2023-11-16T02:26:04.804Z,8.80
2023-11-16T02:28:32.351Z,19.33
2023-11-16T02:31:02.300Z,16.25
2023-11-16T02:33:30.202Z,15.05
2023-11-16T02:35:58.926Z,9.07
2023-11-16T02:38:26.764Z,17.25
2023-11-16T02:40:54.403Z,14.20
2023-11-16T02:43:22.795Z,18.25
2023-11-16T02:45:50.492Z,16.85
2023-11-16T02:48:18.302Z,18.77
2023-11-16T02:50:45.906Z,11.80
2023-11-16T02:53:13.596Z,20.95
2023-11-16T02:55:41.241Z,14.48
2023-11-16T02:58:10.599Z,17.60
2023-11-16T03:00:38.952Z,15.82
2023-11-16T03:03:07.366Z,13.55
2023-11-16T03:05:34.983Z,28.00
2023-11-16T03:08:03.397Z,18.10
2023-11-16T03:10:31.079Z,12.60
2023-11-16T03:12:59.037Z,19.02
2023-11-16T03:15:26.650Z,18.00
2023-11-16T03:17:57.597Z,17.60
2023-11-16T03:20:27.368Z,21.63
2023-11-16T03:22:55.052Z,17.63
2023-11-16T03:25:22.930Z,15.90
2023-11-16T03:27:50.462Z,16.40
2023-11-16T03:30:18.682Z,13.35
2023-11-16T03:32:49.344Z,24.30
2023-11-16T03:35:17.245Z,19.67
2023-11-16T03:37:45.186Z,12.77
2023-11-16T03:40:13.719Z,18.60
2023-11-16T03:42:41.504Z,18.05
2023-11-16T03:45:09.673Z,16.55
2023-11-16T03:47:37.377Z,19.35
2023-11-16T03:50:06.487Z,15.70
2023-11-16T03:52:34.769Z,14.70
2023-11-16T03:55:02.673Z,23.35
2023-11-16T03:57:30.280Z,14.68
2023-11-16T03:59:57.891Z,12.20
2023-11-16T04:02:25.712Z,16.60
2023-11-16T04:04:53.303Z,14.82
2023-11-16T04:07:20.786Z,18.02
2023-11-16T04:09:48.407Z,11.15
2023-11-16T04:12:16.643Z,14.55
2023-11-16T04:14:44.353Z,13.10
2023-11-16T04:17:14.768Z,13.98
2023-11-16T04:19:43.090Z,19.27
2023-11-16T04:22:11.719Z,22.52
2023-11-16T04:24:42.560Z,14.77
2023-11-16T04:27:10.466Z,15.52
2023-11-16T04:29:38.861Z,12.10
2023-11-16T04:32:07.036Z,17.17
2023-11-16T04:34:34.639Z,17.70
2023-11-16T04:37:05.810Z,12.70
2023-11-16T04:39:33.460Z,17.33
2023-11-16T04:42:01.099Z,17.55
2023-11-16T04:44:28.753Z,15.02
2023-11-16T04:46:56.421Z,11.93
2023-11-16T04:49:24.170Z,18.40
2023-11-16T04:51:52.033Z,15.02
2023-11-16T04:54:20.239Z,10.98
2023-11-16T04:56:47.888Z,19.85
2023-11-16T04:59:15.438Z,20.83
2023-11-16T05:01:43.116Z,11.05
2023-11-16T05:04:10.811Z,17.00
2023-11-16T05:06:42.404Z,12.80
2023-11-16T05:09:10.032Z,16.95
2023-11-16T05:11:37.551Z,21.30
2023-11-16T05:14:05.589Z,11.80
2023-11-16T05:16:33.486Z,21.80
2023-11-16T05:19:01.744Z,19.27
2023-11-16T05:21:29.338Z,16.67
2023-11-16T05:23:56.863Z,18.52
2023-11-16T05:26:24.360Z,15.38
2023-11-16T05:28:52.005Z,14.77
2023-11-16T05:31:19.612Z,11.80
2023-11-16T05:33:47.219Z,23.20
2023-11-16T05:36:15.157Z,27.25
2023-11-16T05:38:45.186Z,16.00
2023-11-16T05:41:14.663Z,12.82
2023-11-16T05:43:42.395Z,18.35
2023-11-16T05:46:10.134Z,13.63
2023-11-16T05:48:37.775Z,19.38
2023-11-16T05:51:06.101Z,17.10
2023-11-16T05:53:35.141Z,12.02
2023-11-16T05:56:02.826Z,14.15
2023-11-16T05:58:30.368Z,14.57
2023-11-16T06:00:57.953Z,14.70
2023-11-16T06:03:29.203Z,19.15
2023-11-16T06:05:58.387Z,14.32
2023-11-16T06:08:26.395Z,18.55
2023-11-16T06:10:53.941Z,23.00
2023-11-16T06:13:23.813Z,13.48
2023-11-16T06:15:51.632Z,17.30
2023-11-16T06:18:19.469Z,12.32
2023-11-16T06:20:47.162Z,15.48
2023-11-16T06:23:14.910Z,18.77
2023-11-16T06:25:42.484Z,19.23
2023-11-16T06:28:11.325Z,13.02
2023-11-16T06:30:40.410Z,13.32
2023-11-16T06:33:08.135Z,21.38
2023-11-16T06:35:35.866Z,12.90
2023-11-16T06:38:04.387Z,12.32
2023-11-16T06:40:31.929Z,19.13
2023-11-16T06:43:01.025Z,18.60
2023-11-16T06:45:30.143Z,17.65
2023-11-16T06:47:58.089Z,20.95
2023-11-16T06:50:25.636Z,13.02
2023-11-16T06:52:53.978Z,16.98
2023-11-16T06:55:21.906Z,16.45
2023-11-16T06:57:51.435Z,18.08
2023-11-16T07:00:22.991Z,14.05
2023-11-16T07:02:50.750Z,17.92
2023-11-16T07:05:19.092Z,20.92
2023-11-16T07:07:47.116Z,15.23
2023-11-16T07:10:17.010Z,14.68
2023-11-16T07:12:44.855Z,17.25
2023-11-16T07:15:13.677Z,17.40
2023-11-16T07:17:41.821Z,19.33
2023-11-16T07:20:12.505Z,19.50
2023-11-16T07:22:41.701Z,17.83
2023-11-16T07:25:10.812Z,14.32
2023-11-16T07:27:41.649Z,16.00
2023-11-16T07:30:11.085Z,18.85
2023-11-16T07:32:39.114Z,16.38
2023-11-16T07:35:16.528Z,22.10
2023-11-16T07:37:48.530Z,19.90
2023-11-16T07:40:18.984Z,19.33
2023-11-16T07:42:50.547Z,14.98
2023-11-16T07:45:18.539Z,18.45
2023-11-16T07:47:48.738Z,23.42
2023-11-16T07:50:16.455Z,19.30
2023-11-16T07:52:45.338Z,13.48
2023-11-16T07:55:20.186Z,21.35
2023-11-16T07:57:49.959Z,20.98
2023-11-16T08:00:27.687Z,23.52
2023-11-16T08:03:14.281Z,18.55
2023-11-16T08:05:44.360Z,17.33
2023-11-16T08:08:13.387Z,14.02
2023-11-16T08:10:50.089Z,19.08
2023-11-16T08:13:20.589Z,14.15
2023-11-16T08:15:54.845Z,18.85
2023-11-16T08:18:23.396Z,19.10
2023-11-16T08:20:51.014Z,20.60
2023-11-16T08:23:19.512Z,18.27
2023-11-16T08:25:49.183Z,18.38
2023-11-16T08:28:16.757Z,17.63
2023-11-16T08:30:44.544Z,14.88
2023-11-16T08:33:12.584Z,16.75
2023-11-16T08:35:40.182Z,16.77
2023-11-16T08:38:09.403Z,15.45
2023-11-16T08:40:37.832Z,10.32
2023-11-16T08:43:11.888Z,16.52
2023-11-16T08:45:40.840Z,15.30
2023-11-16T08:48:10.100Z,14.90
2023-11-16T08:50:42.846Z,17.77
2023-11-16T08:53:11.075Z,19.13
2023-11-16T08:55:38.676Z,14.73
2023-11-16T08:58:07.774Z,12.27
2023-11-16T09:00:37.155Z,14.35
2023-11-16T09:03:08.070Z,9.05
2023-11-16T09:05:38.365Z,16.08
2023-11-16T09:08:06.389Z,17.77
2023-11-16T09:10:33.934Z,24.08
2023-11-16T09:13:03.133Z,18.23
2023-11-16T09:15:31.656Z,21.75
2023-11-16T09:18:04.087Z,12.70
2023-11-16T09:20:32.272Z,19.45
2023-11-16T09:22:59.874Z,22.95
2023-11-16T09:25:31.026Z,21.40
2023-11-16T09:28:00.313Z,20.15
2023-11-16T09:30:29.260Z,16.70
2023-11-16T09:32:58.786Z,20.20
2023-11-16T09:35:28.776Z,15.90
2023-11-16T09:37:57.665Z,16.85
2023-11-16T09:40:30.571Z,16.55
2023-11-16T09:43:01.902Z,16.67
2023-11-16T09:45:30.481Z,17.80
2023-11-16T09:48:03.258Z,20.42
2023-11-16T09:50:32.349Z,16.40
2023-11-16T09:53:01.910Z,15.43
2023-11-16T09:55:33.396Z,6.80
2023-11-16T09:58:09.440Z,12.68
2023-11-16T10:00:37.580Z,12.48
2023-11-16T10:03:07.198Z,14.73
2023-11-16T10:05:38.225Z,11.65
2023-11-16T10:10:38.468Z,14.27
2023-11-16T10:13:06.485Z,16.83
2023-11-16T10:15:36.915Z,10.52
2023-11-16T10:18:10.442Z,15.50
2023-11-16T10:20:44.586Z,11.35
2023-11-16T10:23:13.342Z,17.75
2023-11-16T10:25:42.206Z,13.73
2023-11-16T10:28:24.090Z,7.75
2023-11-16T10:30:55.519Z,11.85
2023-11-16T10:33:27.387Z,15.32
2023-11-16T10:35:57.259Z,9.25
2023-11-16T10:38:28.885Z,17.33
2023-11-16T10:40:58.177Z,16.13
2023-11-16T10:43:29.899Z,17.88
2023-11-16T10:46:02.695Z,15.32
2023-11-16T10:48:31.096Z,12.93
2023-11-16T10:51:01.484Z,11.10
2023-11-16T10:53:39.418Z,20.52
2023-11-16T10:56:12.898Z,15.80
2023-11-16T10:58:41.823Z,16.38
2023-11-16T11:01:15.533Z,14.88
2023-11-16T11:03:50.185Z,13.55
2023-11-16T11:06:20.119Z,12.75
2023-11-16T11:08:49.503Z,14.68
2023-11-16T11:11:26.100Z,14.25
2023-11-16T11:14:06.860Z,15.30
2023-11-16T11:16:35.879Z,15.23
2023-11-16T11:19:05.436Z,15.20
2023-11-16T11:21:32.856Z,12.85
2023-11-16T11:24:06.633Z,23.05
2023-11-16T11:26:52.645Z,14.77
2023-11-16T11:29:25.102Z,18.95
2023-11-16T11:32:14.827Z,14.52
2023-11-16T11:34:44.817Z,11.77
2023-11-16T11:37:15.691Z,19.42
2023-11-16T11:39:47.680Z,13.63
2023-11-16T11:42:17.949Z,14.82
2023-11-16T11:44:57.689Z,16.20
2023-11-16T11:47:25.947Z,12.82
2023-11-16T11:49:53.709Z,13.10
2023-11-16T11:52:23.871Z,19.05
2023-11-16T11:54:51.615Z,11.85
2023-11-16T11:57:27.524Z,19.98
2023-11-16T11:59:59.660Z,12.07
2023-11-16T12:02:27.472Z,11.30
2023-11-16T12:04:55.192Z,12.25
2023-11-16T12:07:23.539Z,15.63
2023-11-16T12:09:53.288Z,17.08
2023-11-16T12:12:21.226Z,13.73
2023-11-16T12:14:49.612Z,10.45
2023-11-16T12:17:19.870Z,18.33
2023-11-16T12:19:51.132Z,14.52
2023-11-16T12:22:21.873Z,13.90
2023-11-16T12:24:52.877Z,13.90
2023-11-16T12:29:57.900Z,14.93
2023-11-16T12:32:30.379Z,16.35
2023-11-16T12:34:59.786Z,9.45
2023-11-16T12:37:27.362Z,11.23
2023-11-16T12:39:55.176Z,15.23
2023-11-16T12:42:27.699Z,12.48
2023-11-16T12:44:55.451Z,13.27
2023-11-16T12:47:23.946Z,12.73
2023-11-16T12:49:55.453Z,11.27
2023-11-16T12:52:23.057Z,13.60
2023-11-16T12:54:53.480Z,16.05
2023-11-16T12:57:21.400Z,20.33
2023-11-16T12:59:50.265Z,11.70
2023-11-16T13:02:18.086Z,11.80
2023-11-16T13:04:45.887Z,13.43
2023-11-16T13:07:13.464Z,16.30
2023-11-16T13:09:40.968Z,10.52
2023-11-16T13:12:19.747Z,11.02
2023-11-16T13:14:50.119Z,11.45
2023-11-16T13:17:17.663Z,11.52
2023-11-16T13:19:45.602Z,16.05
2023-11-16T13:22:13.220Z,9.80
2023-11-16T13:24:43.384Z,15.68
2023-11-16T13:27:11.321Z,10.88
2023-11-16T13:29:40.543Z,15.75
2023-11-16T13:32:08.065Z,15.10
2023-11-16T13:34:35.631Z,12.30
2023-11-16T13:37:03.594Z,22.05
2023-11-16T13:39:32.960Z,13.15
2023-11-16T13:42:00.968Z,11.43
2023-11-16T13:44:28.805Z,13.85
2023-11-16T13:46:56.383Z,16.25
2023-11-16T13:49:24.038Z,11.30
2023-11-16T13:51:51.596Z,22.38
2023-11-16T13:54:19.143Z,12.43
2023-11-16T13:56:49.954Z,16.15
2023-11-16T13:59:17.943Z,17.65
2023-11-16T14:01:47.026Z,15.48
2023-11-16T14:04:14.998Z,10.40
2023-11-16T14:06:43.839Z,18.90
2023-11-16T14:09:14.900Z,17.08
2023-11-16T14:14:11.998Z,16.55
2023-11-16T14:16:40.389Z,13.02
2023-11-16T14:19:09.174Z,18.35
2023-11-16T14:21:36.989Z,14.15
2023-11-16T14:24:08.479Z,19.05
2023-11-16T14:26:37.237Z,8.60
2023-11-16T14:29:04.819Z,16.83
2023-11-16T14:31:32.462Z,16.02
2023-11-16T14:34:00.541Z,14.00
2023-11-16T14:36:28.345Z,15.25
2023-11-16T14:38:55.908Z,13.82
2023-11-16T14:41:23.691Z,16.17
2023-11-16T14:43:51.251Z,26.23
2023-11-16T14:46:20.731Z,13.73
2023-11-16T14:48:48.509Z,19.80
2023-11-16T14:51:18.447Z,12.77
2023-11-16T14:53:54.339Z,15.63
2023-11-16T14:56:26.869Z,19.40
2023-11-16T14:58:54.561Z,15.70
2023-11-16T15:01:22.489Z,15.93
2023-11-16T15:03:50.344Z,21.38
2023-11-16T15:06:17.940Z,16.67
2023-11-16T15:08:46.478Z,14.05
2023-11-16T15:11:15.768Z,23.92
2023-11-16T15:13:51.055Z,16.52
2023-11-16T15:16:26.561Z,18.50
2023-11-16T15:18:54.367Z,12.75
2023-11-16T15:21:22.443Z,12.32
2023-11-16T15:23:50.070Z,11.75
2023-11-16T15:26:18.873Z,14.70
2023-11-16T15:28:47.086Z,15.07
2023-11-16T15:31:15.745Z,15.52
2023-11-16T15:33:45.297Z,12.75
2023-11-16T15:36:12.834Z,17.58
2023-11-16T15:38:40.411Z,15.85
2023-11-16T15:41:09.393Z,20.67
2023-11-16T15:43:36.958Z,11.85
2023-11-16T15:46:05.749Z,17.83
2023-11-16T15:48:33.668Z,15.75
2023-11-16T15:51:02.095Z,13.43
2023-11-16T15:53:29.714Z,18.13
2023-11-16T15:55:57.416Z,21.70
2023-11-16T15:58:27.068Z,17.48
2023-11-16T16:00:54.725Z,15.68
2023-11-16T16:03:22.389Z,14.65
2023-11-16T16:05:52.182Z,15.68
2023-11-16T16:08:20.711Z,18.55
2023-11-16T16:10:48.196Z,16.95
2023-11-16T16:13:15.879Z,16.00
2023-11-16T16:15:48.605Z,17.50
2023-11-16T16:18:16.906Z,20.33
2023-11-16T16:20:45.629Z,14.07
2023-11-16T16:23:14.709Z,16.63
2023-11-16T16:25:42.271Z,16.20
2023-11-16T16:28:10.157Z,20.23
2023-11-16T16:30:37.881Z,21.98
2023-11-16T16:33:05.620Z,15.60
2023-11-16T16:35:39.306Z,18.02
2023-11-16T16:38:06.885Z,16.88
2023-11-16T16:40:34.475Z,19.58
2023-11-16T16:43:02.142Z,19.27
2023-11-16T16:45:29.751Z,25.15
2023-11-16T16:48:06.418Z,22.33
2023-11-16T16:50:36.959Z,20.23
2023-11-16T16:53:04.566Z,17.67
2023-11-16T16:55:32.192Z,21.88
2023-11-16T16:57:59.830Z,27.17
2023-11-16T17:00:27.435Z,23.38
2023-11-16T17:02:55.057Z,28.77
2023-11-16T17:05:23.651Z,24.75
2023-11-16T17:07:51.174Z,21.35
2023-11-16T17:10:19.237Z,21.48
2023-11-16T17:12:46.882Z,30.95
2023-11-16T17:15:14.428Z,23.10
2023-11-16T17:17:42.157Z,22.17
2023-11-16T17:20:14.925Z,24.65
2023-11-16T17:22:43.681Z,23.42
2023-11-16T17:25:13.007Z,18.75
2023-11-16T17:27:42.553Z,21.48
2023-11-16T17:30:13.731Z,17.08
2023-11-16T17:32:42.525Z,20.92
2023-11-16T17:35:10.613Z,23.15
2023-11-16T17:37:39.955Z,23.83
2023-11-16T17:40:08.546Z,22.00
2023-11-16T17:42:36.691Z,30.13
2023-11-16T17:45:06.532Z,27.85
2023-11-16T17:47:34.164Z,26.33
2023-11-16T17:50:01.714Z,31.42
2023-11-16T17:52:29.594Z,28.65
2023-11-16T17:54:57.144Z,26.45
2023-11-16T17:57:24.780Z,23.38
2023-11-16T17:59:53.074Z,34.60
2023-11-16T18:02:20.621Z,25.30
2023-11-16T18:04:48.370Z,27.17
2023-11-16T18:07:16.046Z,31.92
2023-11-16T18:09:43.575Z,36.75
2023-11-16T18:12:15.193Z,31.83
2023-11-16T18:14:43.372Z,36.38
2023-11-16T18:17:11.079Z,28.10
2023-11-16T18:19:38.775Z,24.55
2023-11-16T18:22:08.128Z,25.45
2023-11-16T18:24:37.937Z,46.72
2023-11-16T18:27:07.137Z,28.42
2023-11-16T18:29:35.243Z,31.80
2023-11-16T18:32:03.485Z,24.38
2023-11-16T18:34:51.636Z,34.20
2023-11-16T18:37:20.032Z,27.88
2023-11-16T18:39:47.896Z,28.60
2023-11-16T18:42:15.445Z,26.60
2023-11-16T18:44:43.826Z,25.67
2023-11-16T18:47:11.850Z,25.38
2023-11-16T18:49:39.396Z,25.98
2023-11-16T18:52:09.241Z,31.42
2023-11-16T18:54:37.036Z,32.08
2023-11-16T18:57:05.361Z,31.40
2023-11-16T18:59:32.856Z,35.10
2023-11-16T19:02:00.433Z,21.88
2023-11-16T19:04:28.279Z,31.38
2023-11-16T19:06:55.894Z,35.85
2023-11-16T19:09:23.592Z,40.92
2023-11-16T19:11:52.474Z,37.17
2023-11-16T19:14:21.098Z,33.67
2023-11-16T19:16:49.616Z,33.65
2023-11-16T19:19:17.326Z,29.05
2023-11-16T19:21:45.514Z,29.85
2023-11-16T19:24:14.037Z,32.53
2023-11-16T19:26:44.137Z,32.95
2023-11-16T19:31:45.944Z,39.90
2023-11-16T19:34:14.059Z,29.27
2023-11-16T19:36:43.519Z,25.13
2023-11-16T19:39:12.283Z,31.25
2023-11-16T19:41:46.268Z,33.67
2023-11-16T19:44:13.940Z,26.77
2023-11-16T19:46:42.308Z,23.55
2023-11-16T19:49:10.104Z,28.70
2023-11-16T19:51:38.815Z,28.58
2023-11-16T19:54:06.656Z,34.55
2023-11-16T19:56:34.348Z,27.00
2023-11-16T19:59:02.022Z,27.88
2023-11-16T20:01:29.937Z,26.88
2023-11-16T20:03:58.093Z,30.25
2023-11-16T20:06:26.064Z,28.88
2023-11-16T20:08:53.670Z,31.17
2023-11-16T20:11:21.308Z,30.30
2023-11-16T20:13:51.688Z,28.40
2023-11-16T20:16:20.183Z,32.53
2023-11-16T20:18:49.571Z,32.75
2023-11-16T20:21:17.567Z,31.95
2023-11-16T20:23:45.870Z,32.13
2023-11-16T20:26:13.439Z,33.28
2023-11-16T20:28:42.283Z,37.42
2023-11-16T20:31:10.242Z,35.75
2023-11-16T20:33:38.357Z,36.95
2023-11-16T20:36:06.430Z,37.92
2023-11-16T20:38:35.009Z,41.97
2023-11-16T20:41:05.153Z,38.33
2023-11-16T20:43:32.681Z,38.35
2023-11-16T20:46:00.274Z,35.28
2023-11-16T20:48:27.865Z,44.85
2023-11-16T20:50:56.973Z,37.20
2023-11-16T20:53:24.711Z,36.83
2023-11-16T20:55:52.212Z,34.70
2023-11-16T20:58:19.950Z,36.92
2023-11-16T21:00:47.569Z,39.47
2023-11-16T21:03:15.269Z,40.33
2023-11-16T21:05:43.025Z,34.58
2023-11-16T21:08:12.615Z,39.72
2023-11-16T21:10:41.511Z,40.92
2023-11-16T21:13:09.976Z,38.42
2023-11-16T21:15:37.699Z,38.88
2023-11-16T21:18:06.519Z,42.45
2023-11-16T21:20:34.414Z,40.53
2023-11-16T21:23:02.051Z,37.00
2023-11-16T21:25:30.044Z,44.15
2023-11-16T21:27:58.314Z,33.17
2023-11-16T21:30:27.353Z,32.33
2023-11-16T21:32:55.514Z,36.08
2023-11-16T21:35:23.598Z,36.33
2023-11-16T21:37:51.263Z,35.75
2023-11-16T21:40:23.100Z,36.22
2023-11-16T21:42:51.385Z,31.48
2023-11-16T21:45:20.698Z,30.40
2023-11-16T21:47:53.227Z,34.65
2023-11-16T21:50:22.728Z,31.75
2023-11-16T21:52:50.250Z,35.22
2023-11-16T21:55:18.412Z,37.17
2023-11-16T21:57:45.978Z,41.80
2023-11-16T22:00:14.872Z,30.15
2023-11-16T22:02:44.047Z,45.45
2023-11-16T22:05:13.977Z,36.97
2023-11-16T22:07:46.067Z,35.15
2023-11-16T22:10:19.245Z,35.90
2023-11-16T22:12:48.631Z,38.30
2023-11-16T22:15:17.637Z,35.72
2023-11-16T22:17:47.245Z,37.03
2023-11-16T22:20:15.732Z,36.97
2023-11-16T22:22:44.593Z,47.92
2023-11-16T22:25:12.361Z,32.92
2023-11-16T22:27:41.080Z,41.55
2023-11-16T22:30:12.466Z,34.72
2023-11-16T22:32:43.557Z,35.47
2023-11-16T22:37:43.584Z,29.85
2023-11-16T22:40:11.954Z,35.38
2023-11-16T22:42:40.196Z,35.67
2023-11-16T22:45:11.687Z,31.90
2023-11-16T22:47:40.585Z,30.17
2023-11-16T22:50:08.835Z,31.92
2023-11-16T22:52:39.191Z,31.25
2023-11-16T22:55:10.215Z,31.57
2023-11-16T22:57:39.688Z,32.10
2023-11-16T23:00:13.312Z,22.92
2023-11-16T23:02:41.966Z,35.30
2023-11-16T23:05:09.992Z,28.58
2023-11-16T23:07:40.850Z,23.45
2023-11-16T23:10:11.464Z,32.38
2023-11-16T23:12:39.622Z,26.52
2023-11-16T23:15:09.535Z,27.17
2023-11-16T23:17:37.615Z,27.27
2023-11-16T23:20:08.864Z,29.58
2023-11-16T23:22:36.497Z,29.48
2023-11-16T23:25:05.327Z,30.90
2023-11-16T23:27:33.254Z,27.85
2023-11-16T23:30:00.911Z,27.27
2023-11-16T23:32:28.768Z,18.25
2023-11-16T23:34:56.288Z,22.95
2023-11-16T23:37:23.857Z,27.80
2023-11-16T23:39:51.489Z,24.73
2023-11-16T23:42:19.029Z,26.58
2023-11-16T23:44:46.545Z,28.95
2023-11-16T23:47:15.218Z,23.23
2023-11-16T23:49:43.257Z,24.85
2023-11-16T23:52:11.366Z,21.17
2023-11-16T23:54:40.433Z,23.73
2023-11-16T23:57:08.016Z,21.70
2023-11-16T23:59:35.647Z,17.02
